Terminal Aerodrome Forecast
Issued by NWS

Home | Current Version | Previous Version | Text Only | Print | Product List | Glossary On
Versions: 1 2 3 4 5 6 7 8 9 10 11 12 13 14 15 16 17
276
FTUS45 KVEF 221120
TAFVGT
TAF
KVGT 221120Z 2212/2312 17007KT P6SM BKN150
     FM221900 16010KT P6SM VCSH SCT080 BKN150
      TEMPO 2222/2302 VRB15G25KT -TSRA BKN070CB
     FM230300 22006KT P6SM SCT080 BKN150=

USA.gov is the U.S. government's official web portal to all federal, state and local government web resources and services.